Terminal Aerodrome Forecast
Issued by NWS Green Bay, WI

Home | Current Version | Previous Version | Graphics & Text | Print | Product List | Glossary On
Versions: 1 2 3 4 5 6 7 8 9 10 11 12 13 14 15 16 17 18
000
FTUS43 KGRB 291730
TAFGRB
TAF
KGRB 291730Z 2918/3018 26015G23KT P6SM VCSH SCT035 BKN070
      TEMPO 2920/2924 4SM SHRA OVC035
     FM300000 26009G17KT P6SM BKN080
     FM300400 26009KT P6SM BKN100
     FM301300 26011G16KT P6SM SCT090
     FM301400 26013G21KT P6SM BKN050=

USA.gov is the U.S. government's official web portal to all federal, state and local government web resources and services.